createdAt,value
2017-12-27T00:00:40.662Z,978.0
2017-12-27T00:01:41.321Z,978.0
2017-12-27T00:02:41.978Z,978.0
2017-12-27T00:03:42.638Z,977.9
2017-12-27T00:04:43.296Z,977.9
2017-12-27T00:05:43.954Z,977.9
2017-12-27T00:06:44.613Z,977.9
2017-12-27T00:07:45.272Z,977.8
2017-12-27T00:08:45.930Z,977.8
2017-12-27T00:09:46.588Z,977.7
2017-12-27T00:10:47.247Z,977.8
2017-12-27T00:11:47.906Z,977.7
2017-12-27T00:12:48.563Z,977.7
2017-12-27T00:13:49.222Z,977.7
2017-12-27T00:14:49.880Z,977.7
2017-12-27T00:15:50.540Z,977.8
2017-12-27T00:16:51.198Z,977.8
2017-12-27T00:17:51.855Z,977.7
2017-12-27T00:18:52.515Z,977.7
2017-12-27T00:19:53.174Z,977.6
2017-12-27T00:20:53.832Z,977.7
2017-12-27T00:21:54.491Z,977.6
2017-12-27T00:22:55.149Z,977.6
2017-12-27T00:23:55.811Z,977.6
2017-12-27T00:24:56.466Z,977.5
2017-12-27T00:25:57.124Z,977.5
2017-12-27T00:26:57.788Z,977.5
2017-12-27T00:27:58.442Z,977.6
2017-12-27T00:28:59.100Z,977.6
2017-12-27T00:29:59.757Z,977.6
2017-12-27T00:31:00.418Z,977.7
2017-12-27T00:32:01.076Z,977.7
2017-12-27T00:33:01.734Z,977.6
2017-12-27T00:34:02.392Z,977.6
2017-12-27T00:35:03.051Z,977.6
2017-12-27T00:36:03.709Z,977.6
2017-12-27T00:37:04.367Z,977.5
2017-12-27T00:38:05.026Z,977.5
2017-12-27T00:39:05.684Z,977.5
2017-12-27T00:40:06.342Z,977.5
2017-12-27T00:41:07.000Z,977.5
2017-12-27T00:42:07.736Z,977.4
2017-12-27T00:43:08.353Z,977.4
2017-12-27T00:44:09.013Z,977.4
2017-12-27T00:45:09.707Z,977.4
2017-12-27T00:46:10.364Z,977.4
2017-12-27T00:47:11.021Z,977.4
2017-12-27T00:48:11.676Z,977.3
2017-12-27T00:49:12.332Z,977.4
2017-12-27T00:50:12.989Z,977.3
2017-12-27T00:51:13.645Z,977.3
2017-12-27T00:52:14.303Z,977.3
2017-12-27T00:53:14.960Z,977.3
2017-12-27T00:54:15.620Z,977.3
2017-12-27T00:55:16.277Z,977.3
2017-12-27T00:56:16.934Z,977.2
2017-12-27T00:57:17.593Z,977.2
2017-12-27T00:58:18.253Z,977.2
2017-12-27T00:59:18.912Z,977.2
2017-12-27T01:00:19.565Z,977.2
2017-12-27T01:01:20.224Z,977.2
2017-12-27T01:02:20.884Z,977.1
2017-12-27T01:03:21.575Z,977.0
2017-12-27T01:04:22.232Z,977.1
2017-12-27T01:05:22.889Z,977.0
2017-12-27T01:06:23.548Z,977.0
2017-12-27T01:07:24.204Z,977.0
2017-12-27T01:08:24.863Z,976.9
2017-12-27T01:09:25.522Z,976.9
2017-12-27T01:10:26.180Z,976.9
2017-12-27T01:11:26.839Z,976.9
2017-12-27T01:12:27.497Z,976.8
2017-12-27T01:13:28.154Z,976.8
2017-12-27T01:14:28.812Z,976.8
2017-12-27T01:15:29.471Z,976.8
2017-12-27T01:16:30.129Z,976.8
2017-12-27T01:17:30.787Z,976.8
2017-12-27T01:18:31.446Z,976.8
2017-12-27T01:19:32.104Z,976.8
2017-12-27T01:20:32.765Z,976.8
2017-12-27T01:21:33.422Z,976.7
2017-12-27T01:22:34.081Z,976.7
2017-12-27T01:23:34.776Z,976.6
2017-12-27T01:24:35.435Z,976.7
2017-12-27T01:25:36.142Z,976.6
2017-12-27T01:26:36.800Z,976.5
2017-12-27T01:27:37.459Z,976.5
2017-12-27T01:28:38.116Z,976.5
2017-12-27T01:29:38.775Z,976.5
2017-12-27T01:30:39.433Z,976.4
2017-12-27T01:31:40.091Z,976.4
2017-12-27T01:32:40.750Z,976.4
2017-12-27T01:33:41.408Z,976.4
2017-12-27T01:34:42.067Z,976.4
2017-12-27T01:35:42.725Z,976.4
2017-12-27T01:36:43.384Z,976.4
2017-12-27T01:37:44.042Z,976.3
2017-12-27T01:38:44.701Z,976.3
2017-12-27T01:39:45.361Z,976.3
2017-12-27T01:40:46.018Z,976.2
2017-12-27T01:41:46.675Z,976.2
2017-12-27T01:42:47.335Z,976.2
2017-12-27T01:43:47.993Z,976.2
2017-12-27T01:44:48.654Z,976.2
2017-12-27T01:45:49.311Z,976.1
2017-12-27T01:46:49.970Z,976.2
2017-12-27T01:47:50.627Z,976.1
2017-12-27T01:48:51.287Z,976.1
2017-12-27T01:49:51.947Z,976.0
2017-12-27T01:50:52.603Z,976.0
2017-12-27T01:51:53.263Z,975.9
2017-12-27T01:52:53.922Z,975.9
2017-12-27T01:53:54.579Z,975.9
2017-12-27T01:54:55.238Z,975.9
2017-12-27T01:55:55.898Z,975.9
2017-12-27T01:56:56.557Z,975.8
2017-12-27T01:57:57.216Z,975.8
2017-12-27T01:58:57.875Z,975.7
2017-12-27T01:59:58.534Z,975.8
2017-12-27T02:00:59.192Z,975.8
2017-12-27T02:01:59.850Z,975.7
2017-12-27T02:03:00.509Z,975.7
2017-12-27T02:04:01.168Z,975.6
2017-12-27T02:05:01.826Z,975.7
2017-12-27T02:06:02.485Z,975.6
2017-12-27T02:07:03.144Z,975.6
2017-12-27T02:08:03.803Z,975.6
2017-12-27T02:09:04.462Z,975.6
2017-12-27T02:10:05.125Z,975.6
2017-12-27T02:11:05.830Z,975.6
2017-12-27T02:12:06.489Z,975.6
2017-12-27T02:13:07.146Z,975.6
2017-12-27T02:14:07.803Z,975.6
2017-12-27T02:15:08.461Z,975.6
2017-12-27T02:16:09.119Z,975.5
2017-12-27T02:17:09.778Z,975.5
2017-12-27T02:18:10.440Z,975.5
2017-12-27T02:19:11.095Z,975.4
2017-12-27T02:20:11.753Z,975.4
2017-12-27T02:21:12.448Z,975.4
2017-12-27T02:22:13.108Z,975.3
2017-12-27T02:23:13.769Z,975.4
2017-12-27T02:24:14.427Z,975.3
2017-12-27T02:25:15.086Z,975.3
2017-12-27T02:26:15.745Z,975.3
2017-12-27T02:28:02.555Z,975.3
2017-12-27T02:29:03.214Z,975.2
2017-12-27T02:30:03.873Z,975.2
2017-12-27T02:31:04.531Z,975.2
2017-12-27T02:32:05.190Z,975.2
2017-12-27T02:33:05.848Z,975.2
2017-12-27T02:34:06.506Z,975.2
2017-12-27T02:35:07.164Z,975.1
2017-12-27T02:36:07.822Z,975.0
2017-12-27T02:37:08.481Z,975.0
2017-12-27T02:38:09.139Z,975.0
2017-12-27T02:39:09.798Z,974.9
2017-12-27T02:40:10.458Z,974.9
2017-12-27T02:41:11.115Z,974.9
2017-12-27T02:42:11.774Z,974.8
2017-12-27T02:43:12.433Z,974.8
2017-12-27T02:44:13.090Z,974.8
2017-12-27T02:45:13.748Z,974.8
2017-12-27T02:46:14.405Z,974.7
2017-12-27T02:47:15.064Z,974.7
2017-12-27T02:48:15.721Z,974.7
2017-12-27T02:49:16.380Z,974.6
2017-12-27T02:50:17.036Z,974.6
2017-12-27T02:51:17.693Z,974.6
2017-12-27T02:52:18.354Z,974.6
2017-12-27T02:53:19.056Z,974.6
2017-12-27T02:54:19.708Z,974.4
2017-12-27T02:55:20.366Z,974.5
2017-12-27T02:56:21.027Z,974.4
2017-12-27T02:57:21.686Z,974.4
2017-12-27T02:58:22.346Z,974.4
2017-12-27T02:59:23.006Z,974.4
2017-12-27T03:00:23.665Z,974.4
2017-12-27T03:01:24.325Z,974.4
2017-12-27T03:02:25.021Z,974.4
2017-12-27T03:03:25.680Z,974.3
2017-12-27T03:04:26.339Z,974.4
2017-12-27T03:05:26.999Z,974.3
2017-12-27T03:06:27.659Z,974.4
2017-12-27T03:07:28.318Z,974.3
2017-12-27T03:08:28.980Z,974.4
2017-12-27T03:09:29.638Z,974.3
2017-12-27T03:10:30.297Z,974.3
2017-12-27T03:11:30.956Z,974.2
2017-12-27T03:12:31.615Z,974.2
2017-12-27T03:13:32.275Z,974.2
2017-12-27T03:14:32.933Z,974.2
2017-12-27T03:15:33.597Z,974.1
2017-12-27T03:16:34.251Z,974.1
2017-12-27T03:17:34.910Z,974.0
2017-12-27T03:18:35.570Z,974.0
2017-12-27T03:19:36.228Z,974.0
2017-12-27T03:20:36.887Z,973.9
2017-12-27T03:21:37.547Z,973.9
2017-12-27T03:22:38.205Z,973.9
2017-12-27T03:23:38.863Z,973.9
2017-12-27T03:24:39.522Z,973.9
2017-12-27T03:25:40.182Z,973.8
2017-12-27T03:26:40.841Z,973.8
2017-12-27T03:27:41.500Z,973.8
2017-12-27T03:28:42.160Z,973.8
2017-12-27T03:29:42.818Z,973.8
2017-12-27T03:30:43.513Z,973.7
2017-12-27T03:31:44.208Z,973.7
2017-12-27T03:32:44.865Z,973.6
2017-12-27T03:33:45.522Z,973.6
2017-12-27T03:34:46.180Z,973.5
2017-12-27T03:35:46.837Z,973.5
2017-12-27T03:36:47.496Z,973.4
2017-12-27T03:37:48.154Z,973.4
2017-12-27T03:38:48.813Z,973.4
2017-12-27T03:39:49.471Z,973.4
2017-12-27T03:40:50.128Z,973.4
2017-12-27T03:41:50.787Z,973.4
2017-12-27T03:42:51.446Z,973.4
2017-12-27T03:43:52.104Z,973.3
2017-12-27T03:44:52.764Z,973.4
2017-12-27T03:45:53.422Z,973.3
2017-12-27T03:46:54.080Z,973.3
2017-12-27T03:47:54.740Z,973.3
2017-12-27T03:48:55.400Z,973.3
2017-12-27T03:49:56.058Z,973.3
2017-12-27T03:50:56.717Z,973.3
2017-12-27T03:51:57.374Z,973.3
2017-12-27T03:52:58.034Z,973.3
2017-12-27T03:53:58.692Z,973.2
2017-12-27T03:54:59.351Z,973.3
2017-12-27T03:56:00.008Z,973.3
2017-12-27T03:57:00.668Z,973.3
2017-12-27T03:58:01.326Z,973.3
2017-12-27T03:59:01.983Z,973.3
2017-12-27T04:00:02.641Z,973.3
2017-12-27T04:01:03.299Z,973.2
2017-12-27T04:02:03.956Z,973.2
2017-12-27T04:03:04.618Z,973.2
2017-12-27T04:04:05.272Z,973.2
2017-12-27T04:05:05.928Z,973.2
2017-12-27T04:06:06.587Z,973.1
2017-12-27T04:07:07.243Z,973.1
2017-12-27T04:08:07.901Z,973.1
2017-12-27T04:09:08.560Z,973.0
2017-12-27T04:10:09.217Z,973.0
2017-12-27T04:11:09.875Z,973.0
2017-12-27T04:12:10.535Z,973.0
2017-12-27T04:13:11.194Z,973.0
2017-12-27T04:14:11.853Z,972.9
2017-12-27T04:15:12.549Z,973.0
2017-12-27T04:16:13.206Z,973.0
2017-12-27T04:17:13.866Z,973.0
2017-12-27T04:18:14.524Z,973.0
2017-12-27T04:19:15.182Z,972.9
2017-12-27T04:20:15.842Z,972.9
2017-12-27T04:21:16.508Z,972.9
2017-12-27T04:22:17.160Z,972.8
2017-12-27T04:23:17.819Z,972.8
2017-12-27T04:24:18.478Z,972.8
2017-12-27T04:25:19.140Z,972.7
2017-12-27T04:26:19.797Z,972.7
2017-12-27T04:27:20.457Z,972.7
2017-12-27T04:28:21.116Z,972.7
2017-12-27T04:29:21.776Z,972.7
2017-12-27T04:30:22.436Z,972.5
2017-12-27T04:31:23.096Z,972.5
2017-12-27T04:32:23.756Z,972.5
2017-12-27T04:33:24.452Z,972.5
2017-12-27T04:34:25.113Z,972.4
2017-12-27T04:35:25.773Z,972.4
2017-12-27T04:36:26.432Z,972.4
2017-12-27T04:37:27.092Z,972.4
2017-12-27T04:38:27.751Z,972.4
2017-12-27T04:39:28.410Z,972.4
2017-12-27T04:40:29.070Z,972.4
2017-12-27T04:41:29.728Z,972.3
2017-12-27T04:42:30.388Z,972.4
2017-12-27T04:43:31.046Z,972.3
2017-12-27T04:44:31.706Z,972.4
2017-12-27T04:45:32.364Z,972.3
2017-12-27T04:46:33.023Z,972.3
2017-12-27T04:47:33.683Z,972.3
2017-12-27T04:48:34.342Z,972.3
2017-12-27T04:49:35.000Z,972.2
2017-12-27T04:50:35.659Z,972.2
2017-12-27T04:51:36.319Z,972.1
2017-12-27T04:52:36.977Z,972.1
2017-12-27T04:53:37.639Z,972.1
2017-12-27T04:54:38.295Z,972.1
2017-12-27T04:55:38.954Z,972.0
2017-12-27T04:56:39.616Z,972.1
2017-12-27T04:57:40.272Z,972.0
2017-12-27T04:58:40.930Z,972.0
2017-12-27T04:59:41.589Z,971.9
2017-12-27T05:00:42.247Z,971.9
2017-12-27T05:01:42.908Z,971.8
2017-12-27T05:02:43.566Z,971.9
2017-12-27T05:03:44.225Z,971.9
2017-12-27T05:04:44.884Z,971.9
2017-12-27T05:05:45.544Z,971.9
2017-12-27T05:06:46.202Z,971.8
2017-12-27T05:07:46.861Z,971.8
2017-12-27T05:08:47.520Z,971.8
2017-12-27T05:09:48.179Z,971.8
2017-12-27T05:10:48.839Z,971.8
2017-12-27T05:11:49.496Z,971.8
2017-12-27T05:12:50.157Z,971.7
2017-12-27T05:13:50.817Z,971.7
2017-12-27T05:14:51.512Z,971.7
2017-12-27T05:15:52.171Z,971.7
2017-12-27T05:16:52.831Z,971.6
2017-12-27T05:17:53.491Z,971.6
2017-12-27T05:18:54.149Z,971.6
2017-12-27T05:19:54.808Z,971.5
2017-12-27T05:20:55.469Z,971.6
2017-12-27T05:21:56.130Z,971.5
2017-12-27T05:22:56.789Z,971.5
2017-12-27T05:23:57.449Z,971.6
2017-12-27T05:24:58.110Z,971.6
2017-12-27T05:25:58.806Z,971.6
2017-12-27T05:26:59.463Z,971.5
2017-12-27T05:28:00.123Z,971.5
2017-12-27T05:29:00.784Z,971.5
2017-12-27T05:30:01.443Z,971.5
2017-12-27T05:31:02.103Z,971.5
2017-12-27T05:32:02.762Z,971.4
2017-12-27T05:33:03.422Z,971.4
2017-12-27T05:34:04.080Z,971.5
2017-12-27T05:35:04.740Z,971.4
2017-12-27T05:36:05.399Z,971.5
2017-12-27T05:37:06.058Z,971.5
2017-12-27T05:38:06.716Z,971.4
2017-12-27T05:39:07.376Z,971.4
2017-12-27T05:40:08.037Z,971.4
2017-12-27T05:41:08.695Z,971.4
2017-12-27T05:42:09.352Z,971.5
2017-12-27T05:43:10.013Z,971.5
2017-12-27T05:44:10.670Z,971.4
2017-12-27T05:45:11.329Z,971.4
2017-12-27T05:46:11.990Z,971.4
2017-12-27T05:47:12.648Z,971.4
2017-12-27T05:48:13.332Z,971.3
2017-12-27T05:49:13.966Z,971.4
2017-12-27T05:50:14.626Z,971.4
2017-12-27T05:51:15.284Z,971.3
2017-12-27T05:52:15.944Z,971.3
2017-12-27T05:53:16.601Z,971.4
2017-12-27T05:54:17.261Z,971.3
2017-12-27T05:55:17.920Z,971.3
2017-12-27T05:56:18.579Z,971.3
2017-12-27T05:57:19.237Z,971.2
2017-12-27T05:58:19.896Z,971.2
2017-12-27T05:59:20.556Z,971.1
2017-12-27T06:00:21.215Z,971.1
2017-12-27T06:01:21.874Z,971.1
2017-12-27T06:02:22.532Z,971.1
2017-12-27T06:03:23.190Z,971.1
2017-12-27T06:04:23.851Z,971.0
2017-12-27T06:05:24.509Z,971.0
2017-12-27T06:06:25.169Z,970.9
2017-12-27T06:07:25.829Z,970.9
2017-12-27T06:08:26.524Z,970.8
2017-12-27T06:09:27.187Z,970.8
2017-12-27T06:10:27.842Z,970.8
2017-12-27T06:11:28.501Z,970.8
2017-12-27T06:12:29.162Z,970.8
2017-12-27T06:13:29.828Z,970.8
2017-12-27T06:14:30.518Z,970.8
2017-12-27T06:15:31.178Z,970.8
2017-12-27T06:16:31.838Z,970.8
2017-12-27T06:17:32.532Z,970.8
2017-12-27T06:18:33.190Z,970.7
2017-12-27T06:19:33.848Z,970.7
2017-12-27T06:20:34.507Z,970.7
2017-12-27T06:21:35.165Z,970.7
2017-12-27T06:22:35.822Z,970.7
2017-12-27T06:23:36.479Z,970.7
2017-12-27T06:24:37.136Z,970.7
2017-12-27T06:25:37.794Z,970.7
2017-12-27T06:26:38.453Z,970.7
2017-12-27T06:27:39.111Z,970.6
2017-12-27T06:28:39.806Z,970.6
2017-12-27T06:29:40.464Z,970.6
2017-12-27T06:30:41.122Z,970.5
2017-12-27T06:31:41.779Z,970.4
2017-12-27T06:32:42.436Z,970.5
2017-12-27T06:33:43.093Z,970.4
2017-12-27T06:34:43.756Z,970.5
2017-12-27T06:35:44.413Z,970.4
2017-12-27T06:36:45.070Z,970.4
2017-12-27T06:37:45.732Z,970.4
2017-12-27T06:38:46.388Z,970.4
2017-12-27T06:39:47.046Z,970.3
2017-12-27T06:40:47.705Z,970.3
2017-12-27T06:41:48.401Z,970.3
2017-12-27T06:42:49.096Z,970.3
2017-12-27T06:43:49.754Z,970.3
2017-12-27T06:44:50.411Z,970.3
2017-12-27T06:45:51.069Z,970.2
2017-12-27T06:46:51.726Z,970.2
2017-12-27T06:47:52.420Z,970.2
2017-12-27T06:48:53.079Z,970.1
2017-12-27T06:49:53.738Z,970.1
2017-12-27T06:50:54.395Z,970.1
2017-12-27T06:51:55.054Z,970.1
2017-12-27T06:52:55.748Z,970.1
2017-12-27T06:53:56.407Z,970.1
2017-12-27T06:54:57.067Z,970.2
2017-12-27T06:55:57.726Z,970.1
2017-12-27T06:56:58.383Z,970.2
2017-12-27T06:57:59.042Z,970.1
2017-12-27T06:58:59.702Z,970.1
2017-12-27T07:00:00.362Z,970.1
2017-12-27T07:01:01.021Z,970.0
2017-12-27T07:02:01.679Z,970.0
2017-12-27T07:03:02.338Z,969.9
2017-12-27T07:04:03.034Z,970.0
2017-12-27T07:05:03.695Z,969.9
2017-12-27T07:06:04.391Z,969.8
2017-12-27T07:07:05.051Z,969.8
2017-12-27T07:08:05.711Z,969.8
2017-12-27T07:09:06.372Z,969.8
2017-12-27T07:10:07.036Z,969.7
2017-12-27T07:11:07.697Z,969.8
2017-12-27T07:12:08.358Z,969.7
2017-12-27T07:13:09.018Z,969.7
2017-12-27T07:14:09.677Z,969.8
2017-12-27T07:15:10.336Z,969.7
2017-12-27T07:16:11.034Z,969.7
2017-12-27T07:17:11.694Z,969.7
2017-12-27T07:18:12.356Z,969.7
2017-12-27T07:19:13.016Z,969.6
2017-12-27T07:20:13.676Z,969.6
2017-12-27T07:21:14.336Z,969.6
2017-12-27T07:22:14.995Z,969.6
2017-12-27T07:23:15.653Z,969.5
2017-12-27T07:24:16.313Z,969.6
2017-12-27T07:25:16.974Z,969.6
2017-12-27T07:26:17.633Z,969.5
2017-12-27T07:27:18.292Z,969.5
2017-12-27T07:28:18.952Z,969.5
2017-12-27T07:29:19.612Z,969.5
2017-12-27T07:30:20.272Z,969.5
2017-12-27T07:31:20.932Z,969.4
2017-12-27T07:32:21.591Z,969.4
2017-12-27T07:33:22.250Z,969.4
2017-12-27T07:34:22.910Z,969.4
2017-12-27T07:35:23.571Z,969.4
2017-12-27T07:36:24.230Z,969.3
2017-12-27T07:37:24.890Z,969.3
2017-12-27T07:38:25.552Z,969.4
2017-12-27T07:39:26.248Z,969.3
2017-12-27T07:40:26.911Z,969.3
2017-12-27T07:41:27.571Z,969.3
2017-12-27T07:42:28.231Z,969.3
2017-12-27T07:43:28.890Z,969.3
2017-12-27T07:44:29.589Z,969.3
2017-12-27T07:45:30.250Z,969.3
2017-12-27T07:46:30.910Z,969.1
2017-12-27T07:47:31.570Z,969.2
2017-12-27T07:48:32.230Z,969.2
2017-12-27T07:49:32.892Z,969.2
2017-12-27T07:50:33.554Z,969.2
2017-12-27T07:51:34.217Z,969.1
2017-12-27T07:52:34.879Z,969.1
2017-12-27T07:53:35.542Z,969.1
2017-12-27T07:54:36.204Z,969.1
2017-12-27T07:55:36.865Z,969.0
2017-12-27T07:56:37.527Z,969.0
2017-12-27T07:57:38.188Z,969.0
2017-12-27T07:58:38.851Z,969.0
2017-12-27T07:59:39.513Z,969.0
2017-12-27T08:00:40.208Z,969.0
2017-12-27T08:01:40.871Z,969.0
2017-12-27T08:02:41.531Z,969.0
2017-12-27T08:03:42.193Z,969.0
2017-12-27T08:04:42.854Z,969.1
2017-12-27T08:05:43.517Z,969.0
2017-12-27T08:06:44.180Z,969.0
2017-12-27T08:07:44.880Z,969.0
2017-12-27T08:08:45.542Z,969.0
2017-12-27T08:09:46.206Z,968.9
2017-12-27T08:10:46.868Z,969.0
2017-12-27T08:11:47.530Z,969.0
2017-12-27T08:12:48.192Z,969.0
2017-12-27T08:13:48.855Z,969.0
2017-12-27T08:14:49.518Z,969.0
2017-12-27T08:15:50.180Z,968.9
2017-12-27T08:16:50.843Z,969.0
2017-12-27T08:17:51.505Z,968.9
2017-12-27T08:18:52.182Z,968.9
2017-12-27T08:19:52.827Z,969.0
2017-12-27T08:20:53.489Z,968.9
2017-12-27T08:21:54.151Z,968.9
2017-12-27T08:22:54.813Z,968.9
2017-12-27T08:23:55.474Z,969.0
2017-12-27T08:24:56.137Z,968.9
2017-12-27T08:25:56.801Z,968.9
2017-12-27T08:26:57.466Z,968.9
2017-12-27T08:27:58.130Z,968.9
2017-12-27T08:28:58.793Z,968.9
2017-12-27T08:29:59.455Z,968.9
2017-12-27T08:31:00.119Z,968.9
2017-12-27T08:32:00.783Z,968.9
2017-12-27T08:33:01.449Z,968.9
2017-12-27T08:34:02.110Z,968.9
2017-12-27T08:35:02.773Z,968.8
2017-12-27T08:36:03.436Z,968.8
2017-12-27T08:37:04.098Z,968.9
2017-12-27T08:38:04.763Z,968.9
2017-12-27T08:39:05.429Z,968.8
2017-12-27T08:40:06.130Z,968.8
2017-12-27T08:41:06.755Z,968.8
2017-12-27T08:42:07.419Z,968.8
2017-12-27T08:43:08.082Z,968.8
2017-12-27T08:44:08.747Z,968.8
2017-12-27T08:45:09.410Z,968.8
2017-12-27T08:46:10.073Z,968.7
2017-12-27T08:47:10.736Z,968.8
2017-12-27T08:48:11.400Z,968.7
2017-12-27T08:49:12.064Z,968.7
2017-12-27T08:50:12.728Z,968.7
2017-12-27T08:51:13.394Z,968.7
2017-12-27T08:52:14.058Z,968.7
2017-12-27T08:53:14.721Z,968.7
2017-12-27T08:54:15.386Z,968.7
2017-12-27T08:55:16.050Z,968.7
2017-12-27T08:56:16.715Z,968.7
2017-12-27T08:57:17.378Z,968.7
2017-12-27T08:58:18.041Z,968.6
2017-12-27T08:59:18.705Z,968.6
2017-12-27T09:00:19.369Z,968.6
2017-12-27T09:01:20.035Z,968.6
2017-12-27T09:02:20.706Z,968.6
2017-12-27T09:03:21.364Z,968.6
2017-12-27T09:04:22.027Z,968.6
2017-12-27T09:05:22.693Z,968.5
2017-12-27T09:06:23.357Z,968.5
2017-12-27T09:07:24.058Z,968.5
2017-12-27T09:08:24.722Z,968.5
2017-12-27T09:09:25.386Z,968.5
2017-12-27T09:10:26.050Z,968.5
2017-12-27T09:11:26.762Z,968.5
2017-12-27T09:12:27.427Z,968.5
2017-12-27T09:13:28.092Z,968.4
2017-12-27T09:14:28.756Z,968.5
2017-12-27T09:15:29.419Z,968.4
2017-12-27T09:16:30.083Z,968.4
2017-12-27T09:17:30.746Z,968.4
2017-12-27T09:18:31.412Z,968.4
2017-12-27T09:19:32.080Z,968.3
2017-12-27T09:20:32.740Z,968.3
2017-12-27T09:21:33.403Z,968.3
2017-12-27T09:22:34.067Z,968.3
2017-12-27T09:23:34.729Z,968.3
2017-12-27T09:24:35.395Z,968.2
2017-12-27T09:25:36.060Z,968.2
2017-12-27T09:26:36.725Z,968.2
2017-12-27T09:27:37.389Z,968.3
2017-12-27T09:28:38.053Z,968.2
2017-12-27T09:29:38.718Z,968.3
2017-12-27T09:30:39.383Z,968.3
2017-12-27T09:31:40.133Z,968.2
2017-12-27T09:32:40.796Z,968.2
2017-12-27T09:33:41.460Z,968.3
2017-12-27T09:34:42.160Z,968.2
2017-12-27T09:35:42.824Z,968.2
2017-12-27T09:36:43.487Z,968.2
2017-12-27T09:37:44.151Z,968.2
2017-12-27T09:38:44.815Z,968.2
2017-12-27T09:39:45.513Z,968.2
2017-12-27T09:40:46.177Z,968.2
2017-12-27T09:41:46.840Z,968.2
2017-12-27T09:42:47.506Z,968.2
2017-12-27T09:43:48.172Z,968.2
2017-12-27T09:44:48.843Z,968.2
2017-12-27T09:45:49.500Z,968.1
2017-12-27T09:46:50.164Z,968.1
2017-12-27T09:47:50.830Z,968.1
2017-12-27T09:48:51.496Z,968.1
2017-12-27T09:49:52.160Z,968.1
2017-12-27T09:50:52.824Z,968.1
2017-12-27T09:51:53.539Z,968.1
2017-12-27T09:52:54.205Z,968.0
2017-12-27T09:53:54.871Z,968.0
2017-12-27T09:54:55.539Z,968.0
2017-12-27T09:55:56.238Z,968.0
2017-12-27T09:56:56.902Z,968.0
2017-12-27T09:57:57.569Z,967.9
2017-12-27T09:58:58.272Z,967.9
2017-12-27T09:59:58.941Z,967.9
2017-12-27T10:00:59.602Z,967.8
2017-12-27T10:02:00.267Z,967.8
2017-12-27T10:03:00.931Z,967.7
2017-12-27T10:04:01.696Z,967.7
2017-12-27T10:05:02.399Z,967.7
2017-12-27T10:06:03.064Z,967.7
2017-12-27T10:07:03.731Z,967.7
2017-12-27T10:08:04.397Z,967.7
2017-12-27T10:09:05.063Z,967.7
2017-12-27T10:10:05.728Z,967.6
2017-12-27T10:11:06.393Z,967.6
2017-12-27T10:12:07.063Z,967.6
2017-12-27T10:13:07.727Z,967.5
2017-12-27T10:14:08.395Z,967.6
2017-12-27T10:15:09.062Z,967.5
2017-12-27T10:16:09.727Z,967.5
2017-12-27T10:17:10.392Z,967.5
2017-12-27T10:18:11.063Z,967.5
2017-12-27T10:19:11.723Z,967.4
2017-12-27T10:20:12.387Z,967.5
2017-12-27T10:21:13.055Z,967.4
2017-12-27T10:22:13.785Z,967.3
2017-12-27T10:23:14.432Z,967.3
2017-12-27T10:24:15.097Z,967.2
2017-12-27T10:25:15.762Z,967.2
2017-12-27T10:26:16.429Z,967.2
2017-12-27T10:27:17.094Z,967.1
2017-12-27T10:28:17.760Z,967.1
2017-12-27T10:29:18.426Z,967.1
2017-12-27T10:30:19.092Z,967.1
2017-12-27T10:31:19.758Z,967.0
2017-12-27T10:32:20.426Z,967.0
2017-12-27T10:33:21.093Z,966.9
2017-12-27T10:34:21.761Z,966.9
2017-12-27T10:35:22.427Z,966.9
2017-12-27T10:36:23.095Z,966.9
2017-12-27T10:37:23.760Z,966.9
2017-12-27T10:38:24.424Z,966.9
2017-12-27T10:39:25.091Z,966.9
2017-12-27T10:40:25.756Z,966.8
2017-12-27T10:41:26.427Z,966.8
2017-12-27T10:42:27.093Z,966.8
2017-12-27T10:43:27.759Z,966.8
2017-12-27T10:44:28.427Z,966.7
2017-12-27T10:45:29.094Z,966.7
2017-12-27T10:46:29.759Z,966.7
2017-12-27T10:47:30.425Z,966.7
2017-12-27T10:48:31.092Z,966.7
2017-12-27T10:49:31.760Z,966.7
2017-12-27T10:50:32.427Z,966.7
2017-12-27T10:51:33.094Z,966.6
2017-12-27T10:52:33.762Z,966.6
2017-12-27T10:53:34.428Z,966.7
2017-12-27T10:54:35.094Z,966.6
2017-12-27T10:55:35.760Z,966.6
2017-12-27T10:56:36.426Z,966.6
2017-12-27T10:57:37.096Z,966.6
2017-12-27T10:58:37.763Z,966.6
2017-12-27T10:59:38.431Z,966.6
2017-12-27T11:00:39.097Z,966.6
2017-12-27T11:01:39.764Z,966.5
2017-12-27T11:02:40.432Z,966.6
2017-12-27T11:03:41.098Z,966.6
2017-12-27T11:04:41.764Z,966.6
2017-12-27T11:05:42.431Z,966.6
2017-12-27T11:06:43.100Z,966.6
2017-12-27T11:07:43.768Z,966.6
2017-12-27T11:08:44.434Z,966.5
2017-12-27T11:09:45.102Z,966.5
2017-12-27T11:10:45.769Z,966.5
2017-12-27T11:11:46.435Z,966.5
2017-12-27T11:12:47.101Z,966.4
2017-12-27T11:13:47.769Z,966.4
2017-12-27T11:14:48.439Z,966.4
2017-12-27T11:15:49.107Z,966.5
2017-12-27T11:16:49.775Z,966.5
2017-12-27T11:17:50.445Z,966.5
2017-12-27T11:18:51.114Z,966.5
2017-12-27T11:19:51.779Z,966.5
2017-12-27T11:20:52.448Z,966.5
2017-12-27T11:21:53.115Z,966.4
2017-12-27T11:22:53.784Z,966.4
2017-12-27T11:23:54.450Z,966.4
2017-12-27T11:24:55.119Z,966.4
2017-12-27T11:25:55.787Z,966.4
2017-12-27T11:26:56.454Z,966.3
2017-12-27T11:27:57.122Z,966.3
2017-12-27T11:28:57.794Z,966.3
2017-12-27T11:29:58.460Z,966.3
2017-12-27T11:30:59.129Z,966.3
2017-12-27T11:31:59.807Z,966.2
2017-12-27T11:33:00.471Z,966.2
2017-12-27T11:34:01.140Z,966.2
2017-12-27T11:35:01.805Z,966.3
2017-12-27T11:36:02.474Z,966.3
2017-12-27T11:37:03.143Z,966.2
2017-12-27T11:38:03.811Z,966.2
2017-12-27T11:39:04.477Z,966.2
2017-12-27T11:40:05.145Z,966.2
2017-12-27T11:41:05.813Z,966.1
2017-12-27T11:42:06.479Z,966.1
2017-12-27T11:43:07.195Z,966.1
2017-12-27T11:44:07.865Z,966.1
2017-12-27T11:45:08.531Z,966.1
2017-12-27T11:46:09.198Z,966.1
2017-12-27T11:47:09.899Z,966.1
2017-12-27T11:48:10.563Z,966.1
2017-12-27T11:49:11.231Z,966.1
2017-12-27T11:50:11.897Z,966.1
2017-12-27T11:51:12.563Z,966.0
2017-12-27T11:52:13.228Z,966.0
2017-12-27T11:53:13.895Z,966.0
2017-12-27T11:54:14.561Z,966.1
2017-12-27T11:55:15.229Z,966.1
2017-12-27T11:56:15.896Z,966.1
2017-12-27T11:57:16.562Z,966.1
2017-12-27T11:58:17.226Z,966.1
2017-12-27T11:59:17.891Z,966.1
2017-12-27T12:00:18.557Z,966.1
2017-12-27T12:01:19.224Z,966.0
2017-12-27T12:02:19.891Z,966.0
2017-12-27T12:03:20.554Z,966.0
2017-12-27T12:04:21.219Z,966.0
2017-12-27T12:05:21.884Z,966.0
2017-12-27T12:06:22.549Z,966.0
2017-12-27T12:07:23.215Z,966.0
2017-12-27T12:08:23.884Z,966.0
2017-12-27T12:09:24.549Z,965.9
2017-12-27T12:10:25.214Z,965.9
2017-12-27T12:11:25.880Z,965.9
2017-12-27T12:12:26.546Z,965.9
2017-12-27T12:13:27.212Z,965.9
2017-12-27T12:14:27.877Z,965.9
2017-12-27T12:15:28.542Z,965.9
2017-12-27T12:16:29.210Z,966.0
2017-12-27T12:17:29.872Z,966.0
2017-12-27T12:18:30.536Z,965.9
2017-12-27T12:19:31.202Z,965.9
2017-12-27T12:20:31.873Z,965.9
2017-12-27T12:21:32.538Z,965.9
2017-12-27T12:22:33.203Z,965.9
2017-12-27T12:23:33.867Z,965.9
2017-12-27T12:24:34.533Z,965.9
2017-12-27T12:25:35.200Z,965.8
2017-12-27T12:26:35.866Z,965.8
2017-12-27T12:27:36.532Z,965.8
2017-12-27T12:28:37.249Z,965.8
2017-12-27T12:29:37.918Z,965.8
2017-12-27T12:30:38.586Z,965.8
2017-12-27T12:31:39.254Z,965.8
2017-12-27T12:32:39.924Z,965.8
2017-12-27T12:33:40.590Z,965.7
2017-12-27T12:34:41.257Z,965.8
2017-12-27T12:35:41.926Z,965.7
2017-12-27T12:36:42.595Z,965.7
2017-12-27T12:37:43.264Z,965.8
2017-12-27T12:38:43.935Z,965.8
2017-12-27T12:39:44.635Z,965.8
2017-12-27T12:40:45.303Z,965.8
2017-12-27T12:41:45.970Z,965.7
2017-12-27T12:42:46.637Z,965.8
2017-12-27T12:43:47.305Z,965.7
2017-12-27T12:44:47.977Z,965.7
2017-12-27T12:45:48.648Z,965.8
2017-12-27T12:46:49.315Z,965.8
2017-12-27T12:47:49.988Z,965.8
2017-12-27T12:48:50.654Z,965.7
2017-12-27T12:49:51.321Z,965.8
2017-12-27T12:50:51.992Z,965.7
2017-12-27T12:51:52.660Z,965.8
2017-12-27T12:52:53.328Z,965.8
2017-12-27T12:53:53.994Z,965.7
2017-12-27T12:54:54.664Z,965.7
2017-12-27T12:55:55.334Z,965.7
2017-12-27T12:56:56.006Z,965.7
2017-12-27T12:57:56.676Z,965.7
2017-12-27T12:58:57.349Z,965.7
2017-12-27T12:59:58.016Z,965.6
2017-12-27T13:00:58.684Z,965.6
2017-12-27T13:01:59.350Z,965.6